Time;durP1;ratioP1;P1;durP2;ratioP2;P2;SDS_P1;SDS_P2;PMS_P1;PMS_P2;Temp;Humidity;BMP_temperature;BMP_pressure;BME280_temperature;BME280_humidity;BME280_pressure;Samples;Min_cycle;Max_cycle;Signal;HPM_P1;HPM_P2
2023/05/08 00:04:48;;;;;;;6.07;5.47;;;;;;;-146.18;100.00;67994.34;10028242;28;20052;-69
2023/05/08 00:09:44;;;;;;;6.65;6.05;;;;;;;-146.18;100.00;67994.34;10034009;29;20145;-69
2023/05/08 00:14:41;;;;;;;5.90;5.18;;;;;;;-146.18;100.00;67994.34;10028286;28;20080;-69
2023/05/08 00:19:37;;;;;;;6.50;5.63;;;;;;;-146.18;100.00;67994.34;9996335;28;1065572;-68
2023/05/08 00:24:34;;;;;;;6.47;5.88;;;;;;;-146.18;100.00;67994.34;10030512;28;20040;-71
2023/05/08 00:29:30;;;;;;;6.72;5.82;;;;;;;-146.18;100.00;67994.34;10033440;28;20039;-72
2023/05/08 00:34:27;;;;;;;6.03;5.53;;;;;;;-146.18;100.00;67994.34;10036362;28;20455;-69
2023/05/08 00:39:23;;;;;;;7.25;5.45;;;;;;;-146.18;100.00;67994.34;10034204;28;20665;-69
2023/05/08 00:44:20;;;;;;;5.97;5.47;;;;;;;-146.18;100.00;67994.34;10034124;28;20537;-70
2023/05/08 00:49:19;;;;;;;6.63;5.70;;;;;;;-146.18;100.00;67994.34;10022413;28;20067;-66
2023/05/08 00:54:16;;;;;;;6.70;6.05;;;;;;;-146.18;100.00;67994.34;9986083;29;20147;-68
2023/05/08 00:59:16;;;;;;;6.22;5.63;;;;;;;-146.18;100.00;67994.34;9989933;29;20040;-67
2023/05/08 01:09:24;;;;;;;5.85;5.35;;;;;;;-146.18;100.00;67994.34;10461759;23;20048;-67
2023/05/08 01:14:34;;;;;;;5.72;5.18;;;;;;;-146.18;100.00;67994.34;10036993;28;20677;-67
2023/05/08 01:19:33;;;;;;;6.65;5.90;;;;;;;-146.18;100.00;67994.34;10034779;28;20540;-67
2023/05/08 01:24:55;;;;;;;6.57;5.97;;;;;;;-146.18;100.00;67994.34;10037792;28;20139;-68
2023/05/08 01:30:09;;;;;;;5.72;5.22;;;;;;;-146.18;100.00;67994.34;10031863;28;20066;-69
2023/05/08 01:35:09;;;;;;;6.28;5.57;;;;;;;-146.18;100.00;67994.34;10048757;28;20059;-70
2023/05/08 01:40:16;;;;;;;5.53;5.03;;;;;;;-146.18;100.00;67994.34;10048428;28;20147;-69
2023/05/08 01:45:22;;;;;;;6.18;5.57;;;;;;;-146.18;100.00;67994.34;10049611;28;20052;-68
2023/05/08 01:50:32;;;;;;;6.50;5.90;;;;;;;-146.18;100.00;67994.34;10049024;28;20051;-69
2023/05/08 01:55:35;;;;;;;6.35;5.60;;;;;;;-146.18;100.00;67994.34;10047342;28;20134;-68
2023/05/08 02:00:31;;;;;;;6.28;5.68;;;;;;;-146.18;100.00;67994.34;10043131;28;20044;-68
2023/05/08 02:05:28;;;;;;;6.35;5.75;;;;;;;-146.18;100.00;67994.34;10046031;28;20042;-68
2023/05/08 02:10:27;;;;;;;6.10;5.50;;;;;;;-146.18;100.00;67994.34;10054435;28;20066;-67
2023/05/08 02:15:26;;;;;;;5.97;5.47;;;;;;;-146.18;100.00;67994.34;10038718;28;20071;-67
2023/05/08 02:20:23;;;;;;;5.47;4.88;;;;;;;-146.18;100.00;67994.34;10051374;28;20087;-70
2023/05/08 02:25:21;;;;;;;6.50;5.90;;;;;;;-146.18;100.00;67994.34;10048554;28;20146;-72
2023/05/08 02:30:18;;;;;;;7.28;6.07;;;;;;;-146.18;100.00;67994.34;10045428;28;20059;-71
2023/05/08 02:35:18;;;;;;;6.43;5.82;;;;;;;-146.18;100.00;67994.34;10055325;28;20416;-71
2023/05/08 02:40:16;;;;;;;6.72;6.13;;;;;;;-146.18;100.00;67994.34;10047596;28;20055;-71
2023/05/08 02:45:13;;;;;;;6.60;6.00;;;;;;;-146.18;100.00;67994.34;10049870;28;20052;-69
2023/05/08 02:50:18;;;;;;;7.18;6.47;;;;;;;-146.18;100.00;67994.34;10054587;28;20486;-68
2023/05/08 02:55:41;;;;;;;7.40;6.70;;;;;;;-146.18;100.00;67994.34;10054718;28;20071;-68
2023/05/08 03:00:55;;;;;;;7.68;7.03;;;;;;;-146.18;100.00;67994.34;10052085;28;20051;-68
2023/05/08 03:05:57;;;;;;;6.82;6.10;;;;;;;-146.18;100.00;67994.34;10069855;28;20102;-68
2023/05/08 03:10:57;;;;;;;6.30;5.70;;;;;;;-146.18;100.00;67994.34;10054915;28;20516;-68
2023/05/08 03:15:59;;;;;;;6.68;6.07;;;;;;;-146.18;100.00;67994.34;10057600;28;20130;-71
2023/05/08 03:20:58;;;;;;;7.53;6.83;;;;;;;-146.18;100.00;67994.34;10049772;28;20078;-71
2023/05/08 03:25:58;;;;;;;7.03;6.20;;;;;;;-146.18;100.00;67994.34;10057016;28;20047;-68
2023/05/08 03:30:55;;;;;;;8.15;7.30;;;;;;;-146.18;100.00;67994.34;10042388;28;20049;-70
2023/05/08 03:36:00;;;;;;;7.68;6.90;;;;;;;-146.18;100.00;67994.34;10051003;28;20841;-81
2023/05/08 03:41:42;;;;;;;7.22;6.53;;;;;;;-146.18;100.00;67994.34;10058174;29;20039;-80
2023/05/08 03:47:03;;;;;;;7.80;7.10;;;;;;;-146.18;100.00;67994.34;10049709;28;20632;-79
2023/05/08 03:52:03;;;;;;;7.82;7.03;;;;;;;-146.18;100.00;67994.34;10037654;28;20174;-79
2023/05/08 03:57:03;;;;;;;7.60;6.90;;;;;;;-146.18;100.00;67994.34;10048500;28;20051;-77
2023/05/08 04:02:33;;;;;;;8.25;7.55;;;;;;;-146.18;100.00;67994.34;10037467;28;20071;-78
2023/05/08 04:07:58;;;;;;;8.43;7.70;;;;;;;-146.18;100.00;67994.34;10034195;28;20057;-78
2023/05/08 04:13:45;;;;;;;8.05;7.35;;;;;;;-146.18;100.00;67994.34;10053334;28;20099;-78
2023/05/08 04:18:54;;;;;;;9.10;8.30;;;;;;;-146.18;100.00;67994.34;10073732;28;20039;-78
2023/05/08 04:30:25;;;;;;;10.32;9.40;;;;;;;-146.18;100.00;67994.34;10053016;28;20035;-77
2023/05/08 04:35:25;;;;;;;10.27;9.38;;;;;;;-146.18;100.00;67994.34;10031649;28;20055;-77
2023/05/08 04:47:08;;;;;;;12.68;9.00;;;;;;;-146.18;100.00;67994.34;10063463;28;20039;-77
2023/05/08 04:52:39;;;;;;;10.48;9.50;;;;;;;-146.18;100.00;67994.34;10045173;29;20131;-77
2023/05/08 04:57:55;;;;;;;10.45;9.55;;;;;;;-146.18;100.00;67994.34;10046158;28;20044;-76
2023/05/08 05:02:52;;;;;;;10.23;9.43;;;;;;;-146.18;100.00;67994.34;10051651;28;20059;-77
2023/05/08 05:07:49;;;;;;;10.32;9.35;;;;;;;-146.18;100.00;67994.34;10055818;28;20059;-76
2023/05/08 05:12:46;;;;;;;10.95;9.90;;;;;;;-146.18;100.00;67994.34;10051232;28;20051;-78
2023/05/08 05:17:43;;;;;;;11.45;10.45;;;;;;;-146.18;100.00;67994.34;10056774;28;20048;-73
2023/05/08 05:22:42;;;;;;;11.07;10.15;;;;;;;-146.18;100.00;67994.34;10047754;28;20047;-73
2023/05/08 05:27:39;;;;;;;11.07;10.18;;;;;;;-146.18;100.00;67994.34;10054877;28;20118;-73
2023/05/08 05:32:35;;;;;;;11.30;10.35;;;;;;;-146.18;100.00;67994.34;10061184;28;20390;-73
2023/05/08 05:37:32;;;;;;;11.45;10.55;;;;;;;-146.18;100.00;67994.34;10054583;28;20047;-73
2023/05/08 05:42:28;;;;;;;11.27;10.30;;;;;;;-146.18;100.00;67994.34;10048702;28;20543;-73
2023/05/08 05:47:25;;;;;;;11.05;10.15;;;;;;;-146.18;100.00;67994.34;10058940;28;20052;-73
2023/05/08 05:52:22;;;;;;;11.45;10.55;;;;;;;-146.18;100.00;67994.34;10051674;28;20417;-73
2023/05/08 05:57:18;;;;;;;11.23;10.32;;;;;;;-146.18;100.00;67994.34;10045648;28;20138;-73
2023/05/08 06:02:17;;;;;;;11.68;10.45;;;;;;;-146.18;100.00;67994.34;10055684;28;20134;-73
2023/05/08 06:07:14;;;;;;;11.70;10.50;;;;;;;-146.18;100.00;67994.34;10046080;28;20043;-73
2023/05/08 06:12:10;;;;;;;11.40;10.50;;;;;;;-146.18;100.00;67994.34;10052098;28;20050;-72
2023/05/08 06:17:10;;;;;;;11.93;10.82;;;;;;;-146.18;100.00;67994.34;10060431;28;20047;-73
2023/05/08 06:22:06;;;;;;;12.02;10.82;;;;;;;-146.18;100.00;67994.34;10052263;28;20054;-72
2023/05/08 06:27:03;;;;;;;11.70;10.73;;;;;;;-146.18;100.00;67994.34;10061524;28;20147;-72
2023/05/08 06:31:59;;;;;;;11.55;10.45;;;;;;;-146.18;100.00;67994.34;10062099;28;20044;-72
2023/05/08 06:36:56;;;;;;;11.40;10.27;;;;;;;-146.18;100.00;67994.34;10063285;28;20494;-72
2023/05/08 06:41:52;;;;;;;11.63;10.60;;;;;;;-146.18;100.00;67994.34;10053167;28;20055;-73
2023/05/08 06:46:48;;;;;;;12.20;11.20;;;;;;;-146.18;100.00;67994.34;10053785;28;20527;-73
2023/05/08 06:51:45;;;;;;;11.82;10.80;;;;;;;-146.18;100.00;67994.34;10057526;28;20067;-73
2023/05/08 06:56:42;;;;;;;12.00;10.32;;;;;;;-146.18;100.00;67994.34;10044240;28;20138;-73
2023/05/08 07:01:38;;;;;;;11.60;10.50;;;;;;;-146.18;100.00;67994.34;10054748;28;20074;-73
2023/05/08 07:06:34;;;;;;;11.45;9.95;;;;;;;-146.18;100.00;67994.34;10054623;28;20051;-73
2023/05/08 07:11:31;;;;;;;10.68;9.77;;;;;;;-146.18;100.00;67994.34;10063492;28;20063;-73
2023/05/08 07:16:27;;;;;;;10.73;9.73;;;;;;;-146.18;100.00;67994.34;10042908;28;20048;-73
2023/05/08 07:21:24;;;;;;;9.95;9.05;;;;;;;-146.18;100.00;67994.34;10053910;28;20048;-73
2023/05/08 07:26:21;;;;;;;11.70;10.52;;;;;;;-146.18;100.00;67994.34;10054828;28;20058;-75
2023/05/08 07:31:18;;;;;;;11.20;10.07;;;;;;;-146.18;100.00;67994.34;10049245;28;20051;-73
2023/05/08 07:36:14;;;;;;;10.93;10.02;;;;;;;-146.18;100.00;67994.34;10063262;28;20480;-73
2023/05/08 07:41:11;;;;;;;12.68;11.57;;;;;;;-146.18;100.00;67994.34;10056611;28;20111;-74
2023/05/08 07:46:07;;;;;;;12.10;9.50;;;;;;;-146.18;100.00;67994.34;10059988;28;20588;-73
2023/05/08 07:51:04;;;;;;;11.43;10.43;;;;;;;-146.18;100.00;67994.34;10057659;28;20057;-74
2023/05/08 07:56:00;;;;;;;12.05;10.88;;;;;;;-146.18;100.00;67994.34;10053857;28;20527;-73
2023/05/08 08:00:57;;;;;;;11.98;10.88;;;;;;;-146.18;100.00;67994.34;10057490;28;20050;-73
2023/05/08 08:05:54;;;;;;;11.27;10.18;;;;;;;-146.18;100.00;67994.34;10053624;28;20043;-73
2023/05/08 08:10:51;;;;;;;12.00;10.77;;;;;;;-146.18;100.00;67994.34;10056370;28;20048;-73
2023/05/08 08:15:48;;;;;;;12.45;11.35;;;;;;;-146.18;100.00;67994.34;10049473;28;20502;-74
2023/05/08 08:20:44;;;;;;;11.75;10.70;;;;;;;-146.18;100.00;67994.34;10056899;28;20043;-74
2023/05/08 08:25:41;;;;;;;11.30;10.30;;;;;;;-146.18;100.00;67994.34;10057539;28;20542;-73
2023/05/08 08:30:37;;;;;;;12.68;11.50;;;;;;;-146.18;100.00;67994.34;10056735;28;20070;-73
2023/05/08 08:35:34;;;;;;;11.55;10.45;;;;;;;-146.18;100.00;67994.34;10052915;28;20063;-74
2023/05/08 08:40:30;;;;;;;11.25;10.25;;;;;;;-146.18;100.00;67994.34;10054218;28;20047;-72
2023/05/08 08:45:27;;;;;;;14.68;11.00;;;;;;;-146.18;100.00;67994.34;10049039;28;20087;-72
2023/05/08 08:50:26;;;;;;;11.95;10.85;;;;;;;-146.18;100.00;67994.34;10053980;28;20079;-72
2023/05/08 08:55:25;;;;;;;11.57;10.50;;;;;;;-146.18;100.00;67994.34;10059743;28;20529;-72
2023/05/08 09:00:24;;;;;;;10.63;9.63;;;;;;;-146.18;100.00;67994.34;10047684;28;20078;-72
2023/05/08 09:05:21;;;;;;;10.35;9.35;;;;;;;-146.18;100.00;67994.34;10059858;28;20083;-72
2023/05/08 09:10:17;;;;;;;10.30;9.35;;;;;;;-146.18;100.00;67994.34;10055908;28;20549;-72
2023/05/08 09:15:14;;;;;;;10.57;9.57;;;;;;;-146.18;100.00;67994.34;10055946;28;20050;-73
2023/05/08 09:20:13;;;;;;;10.65;9.65;;;;;;;-146.18;100.00;67994.34;10052526;28;20044;-72
2023/05/08 09:25:10;;;;;;;10.77;9.73;;;;;;;-146.18;100.00;67994.34;10054354;28;20057;-73
2023/05/08 09:30:13;;;;;;;10.85;9.85;;;;;;;-146.18;100.00;67994.34;10045117;28;20127;-73
2023/05/08 09:35:12;;;;;;;9.93;9.05;;;;;;;-146.18;100.00;67994.34;10053417;28;20633;-73
2023/05/08 09:40:14;;;;;;;10.13;9.13;;;;;;;-146.18;100.00;67994.34;10043693;28;20165;-72
2023/05/08 09:45:25;;;;;;;11.30;9.37;;;;;;;-146.18;100.00;67994.34;10045133;28;20513;-74
2023/05/08 09:50:22;;;;;;;9.35;8.40;;;;;;;-146.18;100.00;67994.34;10040537;28;20047;-75
2023/05/08 09:55:18;;;;;;;9.55;8.65;;;;;;;-146.18;100.00;67994.34;10060728;28;20474;-74
2023/05/08 10:00:15;;;;;;;10.63;8.30;;;;;;;-146.18;100.00;67994.34;10064839;28;20633;-72
2023/05/08 10:05:23;;;;;;;8.70;8.00;;;;;;;-146.18;100.00;67994.34;10061385;28;20051;-72
2023/05/08 10:10:29;;;;;;;9.20;8.30;;;;;;;-146.18;100.00;67994.34;10062808;28;20497;-75
2023/05/08 10:15:30;;;;;;;8.68;7.88;;;;;;;-146.18;100.00;67994.34;10086611;28;20051;-74
2023/05/08 10:20:29;;;;;;;9.52;8.73;;;;;;;-146.18;100.00;67994.34;10062876;28;20076;-73
2023/05/08 10:25:31;;;;;;;8.65;7.85;;;;;;;-146.18;100.00;67994.34;10065303;28;20086;-73
2023/05/08 10:30:29;;;;;;;8.48;7.60;;;;;;;-146.18;100.00;67994.34;10054967;28;20051;-73
2023/05/08 10:35:27;;;;;;;9.77;8.32;;;;;;;-146.18;100.00;67994.34;10063694;28;20548;-73
2023/05/08 10:40:26;;;;;;;8.60;7.78;;;;;;;-146.18;100.00;67994.34;10049196;28;20052;-73
2023/05/08 10:45:23;;;;;;;8.85;8.07;;;;;;;-146.18;100.00;67994.34;10061455;28;20827;-73
2023/05/08 10:51:17;;;;;;;9.20;8.30;;;;;;;-146.18;100.00;67994.34;10054325;28;20052;-73
2023/05/08 10:56:13;;;;;;;9.20;8.30;;;;;;;-146.18;100.00;67994.34;10047501;29;20130;-73
2023/05/08 11:01:11;;;;;;;9.18;7.80;;;;;;;-146.18;100.00;67994.34;10040063;28;20090;-73
2023/05/08 11:06:08;;;;;;;7.85;7.05;;;;;;;-146.18;100.00;67994.34;10064575;28;20053;-73
2023/05/08 11:11:34;;;;;;;8.13;7.43;;;;;;;-146.18;100.00;67994.34;10066471;28;20048;-73
2023/05/08 11:17:02;;;;;;;7.70;7.00;;;;;;;-146.18;100.00;67994.34;10064072;28;20122;-73
2023/05/08 11:22:25;;;;;;;8.98;8.00;;;;;;;-146.18;100.00;67994.34;10051466;28;20059;-73
2023/05/08 11:27:34;;;;;;;7.40;6.88;;;;;;;-146.18;100.00;67994.34;10057672;28;20048;-73
2023/05/08 11:32:57;;;;;;;7.75;6.90;;;;;;;-146.18;100.00;67994.34;10057950;28;20148;-73
2023/05/08 11:38:14;;;;;;;7.55;6.90;;;;;;;-146.18;100.00;67994.34;10050612;28;20053;-73
2023/05/08 11:43:27;;;;;;;7.75;7.05;;;;;;;-146.18;100.00;67994.34;10052032;28;20383;-73
2023/05/08 11:48:24;;;;;;;8.15;7.55;;;;;;;-146.18;100.00;67994.34;10062338;28;20043;-73
2023/05/08 11:53:21;;;;;;;7.72;7.13;;;;;;;-146.18;100.00;67994.34;10049542;28;20492;-73
2023/05/08 11:58:17;;;;;;;7.38;6.78;;;;;;;-146.18;100.00;67994.34;10049015;28;20149;-73
2023/05/08 12:03:16;;;;;;;7.18;6.45;;;;;;;-146.18;100.00;67994.34;10042196;28;20122;-73
2023/05/08 12:08:14;;;;;;;6.80;6.20;;;;;;;-146.18;100.00;67994.34;10059827;28;20122;-73
2023/05/08 12:13:20;;;;;;;8.32;6.47;;;;;;;-146.18;100.00;67994.34;10042540;28;20046;-73
2023/05/08 12:18:16;;;;;;;6.00;5.50;;;;;;;-146.18;100.00;67994.34;10062765;28;20118;-73
2023/05/08 12:23:13;;;;;;;7.75;6.38;;;;;;;-146.18;100.00;67994.34;10060523;28;20095;-73
2023/05/08 12:28:10;;;;;;;8.02;6.22;;;;;;;-146.18;100.00;67994.34;10056476;28;20051;-73
2023/05/08 12:33:07;;;;;;;7.95;6.60;;;;;;;-146.18;100.00;67994.34;10055682;29;20078;-73
2023/05/08 12:38:06;;;;;;;6.70;6.20;;;;;;;-146.18;100.00;67994.34;10059039;28;20047;-73
2023/05/08 12:43:02;;;;;;;7.00;6.40;;;;;;;-146.18;100.00;67994.34;10054883;28;20039;-73
2023/05/08 12:48:02;;;;;;;7.15;6.55;;;;;;;-146.18;100.00;67994.34;10063027;28;20127;-73
2023/05/08 12:53:09;;;;;;;7.72;7.00;;;;;;;-146.18;100.00;67994.34;10063721;28;20040;-73
2023/05/08 12:58:08;;;;;;;8.80;7.03;;;;;;;-146.18;100.00;67994.34;10046867;29;20078;-73
2023/05/08 13:03:12;;;;;;;7.00;6.50;;;;;;;-146.18;100.00;67994.34;10056584;28;20098;-73
2023/05/08 13:08:09;;;;;;;7.22;6.57;;;;;;;-146.18;100.00;67994.34;10040391;28;20047;-73
2023/05/08 13:13:06;;;;;;;7.55;6.38;;;;;;;-146.18;100.00;67994.34;10055550;28;20051;-74
2023/05/08 13:18:02;;;;;;;7.28;6.53;;;;;;;-146.18;100.00;67994.34;10049101;28;20123;-74
2023/05/08 13:22:59;;;;;;;7.53;6.93;;;;;;;-146.18;100.00;67994.34;10055161;28;20043;-73
2023/05/08 13:27:57;;;;;;;7.95;6.53;;;;;;;-146.18;100.00;67994.34;10037970;28;20454;-73
2023/05/08 13:32:54;;;;;;;6.97;6.43;;;;;;;-146.18;100.00;67994.34;10056506;28;20078;-74
2023/05/08 13:37:50;;;;;;;7.43;6.82;;;;;;;-146.18;100.00;67994.34;10046719;28;20505;-74
2023/05/08 13:42:47;;;;;;;6.95;6.35;;;;;;;-146.18;100.00;67994.34;10052741;28;20454;-73
2023/05/08 13:47:49;;;;;;;7.03;6.20;;;;;;;-146.18;100.00;67994.34;10055979;28;20051;-74
2023/05/08 13:52:45;;;;;;;7.22;6.63;;;;;;;-146.18;100.00;67994.34;10048034;28;20051;-73
2023/05/08 13:57:42;;;;;;;6.65;5.97;;;;;;;-146.18;100.00;67994.34;10040013;28;20127;-74
2023/05/08 14:02:39;;;;;;;7.07;6.38;;;;;;;-146.18;100.00;67994.34;10052540;28;20130;-74
2023/05/08 14:07:35;;;;;;;6.68;6.18;;;;;;;-146.18;100.00;67994.34;10048556;28;20086;-74
2023/05/08 14:12:34;;;;;;;7.43;6.70;;;;;;;-146.18;100.00;67994.34;10046875;28;20040;-74
2023/05/08 14:17:31;;;;;;;6.45;5.85;;;;;;;-146.18;100.00;67994.34;10055246;28;20054;-73
2023/05/08 14:22:28;;;;;;;6.90;5.72;;;;;;;-146.18;100.00;67994.34;10054056;28;20094;-73
2023/05/08 14:27:24;;;;;;;6.55;5.80;;;;;;;-146.18;100.00;67994.34;10059068;28;20127;-73
2023/05/08 14:32:20;;;;;;;9.25;6.05;;;;;;;-146.18;100.00;67994.34;10049775;28;20055;-73
2023/05/08 14:37:17;;;;;;;7.10;6.50;;;;;;;-146.18;100.00;67994.34;10054339;28;20079;-73
2023/05/08 14:42:13;;;;;;;7.68;6.97;;;;;;;-146.18;100.00;67994.34;10064241;28;20040;-74
2023/05/08 14:47:19;;;;;;;6.63;6.03;;;;;;;-146.18;100.00;67994.34;10073265;28;20047;-73
2023/05/08 14:52:17;;;;;;;6.60;5.72;;;;;;;-146.18;100.00;67994.34;10062451;28;20043;-81
2023/05/08 14:57:19;;;;;;;6.38;5.88;;;;;;;-146.18;100.00;67994.34;10056699;28;20043;-75
2023/05/08 15:02:19;;;;;;;6.90;5.88;;;;;;;-146.18;100.00;67994.34;10053319;28;20421;-80
2023/05/08 15:07:29;;;;;;;5.97;5.47;;;;;;;-146.18;100.00;67994.34;10064804;28;20049;-71
2023/05/08 15:12:25;;;;;;;6.10;5.60;;;;;;;-146.18;100.00;67994.34;10048159;28;20054;-72
2023/05/08 15:17:23;;;;;;;6.15;5.65;;;;;;;-146.18;100.00;67994.34;10064728;28;20536;-75
2023/05/08 15:22:47;;;;;;;7.18;6.10;;;;;;;-146.18;100.00;67994.34;10056684;28;20063;-74
2023/05/08 15:28:33;;;;;;;7.55;6.75;;;;;;;-146.18;100.00;67994.34;10066304;28;20085;-76
2023/05/08 15:33:54;;;;;;;7.13;6.22;;;;;;;-146.18;100.00;67994.34;10037003;28;20039;-77
2023/05/08 15:38:52;;;;;;;6.93;6.32;;;;;;;-146.18;100.00;67994.34;10048295;28;20065;-76
2023/05/08 15:43:50;;;;;;;6.72;6.13;;;;;;;-146.18;100.00;67994.34;10057903;28;20391;-75
2023/05/08 15:48:46;;;;;;;6.10;5.50;;;;;;;-146.18;100.00;67994.34;10055738;28;20116;-74
2023/05/08 15:53:43;;;;;;;6.30;5.80;;;;;;;-146.18;100.00;67994.34;10054412;28;20201;-73
2023/05/08 15:58:45;;;;;;;6.05;5.55;;;;;;;-146.18;100.00;67994.34;10061903;28;20078;-77
2023/05/08 16:03:56;;;;;;;6.22;5.32;;;;;;;-146.18;100.00;67994.34;10054870;28;20450;-76
2023/05/08 16:09:57;;;;;;;6.35;5.75;;;;;;;-146.18;100.00;67994.34;10049194;28;20617;-76
2023/05/08 16:14:55;;;;;;;7.28;5.70;;;;;;;-146.18;100.00;67994.34;10045526;29;20051;-75
2023/05/08 16:20:12;;;;;;;6.38;5.80;;;;;;;-146.18;100.00;67994.34;10045459;29;20417;-75
2023/05/08 16:25:15;;;;;;;6.22;5.63;;;;;;;-146.18;100.00;67994.34;10044317;28;20059;-74
2023/05/08 16:30:14;;;;;;;6.53;6.03;;;;;;;-146.18;100.00;67994.34;10061293;28;20058;-75
2023/05/08 16:35:10;;;;;;;6.05;5.53;;;;;;;-146.18;100.00;67994.34;10057859;28;20055;-75
2023/05/08 16:40:08;;;;;;;9.38;5.70;;;;;;;-146.18;100.00;67994.34;10049292;28;20066;-76
2023/05/08 16:45:15;;;;;;;6.35;5.82;;;;;;;-146.18;100.00;67994.34;10034787;28;20054;-74
2023/05/08 16:50:16;;;;;;;7.15;6.55;;;;;;;-146.18;100.00;67994.34;10049562;28;20051;-74
2023/05/08 16:55:12;;;;;;;7.68;7.07;;;;;;;-146.18;100.00;67994.34;10059127;28;20097;-74
2023/05/08 17:00:11;;;;;;;6.65;6.15;;;;;;;-146.18;100.00;67994.34;10033248;28;20051;-75
2023/05/08 17:05:32;;;;;;;6.60;5.95;;;;;;;-146.18;100.00;67994.34;10062351;28;20074;-75
2023/05/08 17:10:29;;;;;;;7.00;5.95;;;;;;;-146.18;100.00;67994.34;10042217;28;20097;-75
2023/05/08 17:15:27;;;;;;;6.30;5.80;;;;;;;-146.18;100.00;67994.34;10054829;28;20095;-75
2023/05/08 17:20:25;;;;;;;6.28;5.82;;;;;;;-146.18;100.00;67994.34;10032495;28;20055;-75
2023/05/08 17:25:22;;;;;;;6.50;5.95;;;;;;;-146.18;100.00;67994.34;10033692;28;20138;-75
2023/05/08 17:30:19;;;;;;;6.30;5.28;;;;;;;-146.18;100.00;67994.34;10050745;28;20647;-74
2023/05/08 17:35:17;;;;;;;6.32;5.82;;;;;;;-146.18;100.00;67994.34;10037176;28;20175;-74
2023/05/08 17:40:13;;;;;;;6.32;5.72;;;;;;;-146.18;100.00;67994.34;10046803;28;20497;-73
2023/05/08 17:45:11;;;;;;;5.80;5.30;;;;;;;-146.18;100.00;67994.34;10049826;28;20065;-76
2023/05/08 17:50:09;;;;;;;7.68;5.93;;;;;;;-146.18;100.00;67994.34;10048230;28;20138;-73
2023/05/08 17:55:07;;;;;;;20.55;13.93;;;;;;;-146.18;100.00;67994.34;10053335;28;20051;-73
2023/05/08 18:00:07;;;;;;;5.88;5.38;;;;;;;-146.18;100.00;67994.34;10059105;28;20452;-73
2023/05/08 18:05:08;;;;;;;5.47;5.03;;;;;;;-146.18;100.00;67994.34;10062572;28;20054;-74
2023/05/08 18:10:07;;;;;;;6.47;5.43;;;;;;;-146.18;100.00;67994.34;10045998;28;20044;-73
2023/05/08 18:15:06;;;;;;;6.97;5.35;;;;;;;-146.18;100.00;67994.34;10071437;28;20055;-73
2023/05/08 18:20:06;;;;;;;5.57;5.07;;;;;;;-146.18;100.00;67994.34;10055397;28;20051;-73
2023/05/08 18:25:04;;;;;;;5.65;5.10;;;;;;;-146.18;100.00;67994.34;10064690;28;20083;-73
2023/05/08 18:30:01;;;;;;;5.40;4.90;;;;;;;-146.18;100.00;67994.34;10071372;28;20087;-73
2023/05/08 18:34:58;;;;;;;5.80;5.30;;;;;;;-146.18;100.00;67994.34;10065228;28;20049;-73
2023/05/08 18:39:55;;;;;;;9.30;6.22;;;;;;;-146.18;100.00;67994.34;10067776;28;20473;-72
2023/05/08 18:44:54;;;;;;;5.65;5.15;;;;;;;-146.18;100.00;67994.34;10061979;28;22573;-72
2023/05/08 18:49:51;;;;;;;5.50;5.00;;;;;;;-146.18;100.00;67994.34;10056463;28;20063;-73
2023/05/08 18:54:48;;;;;;;6.38;5.78;;;;;;;-146.18;100.00;67994.34;10064999;28;20039;-73
2023/05/08 18:59:49;;;;;;;5.70;5.13;;;;;;;-146.18;100.00;67994.34;10060634;28;20125;-73
2023/05/08 19:04:46;;;;;;;5.72;5.22;;;;;;;-146.18;100.00;67994.34;10063417;28;20142;-73
2023/05/08 19:09:43;;;;;;;6.00;5.43;;;;;;;-146.18;100.00;67994.34;10067586;28;20113;-73
2023/05/08 19:14:42;;;;;;;6.03;5.30;;;;;;;-146.18;100.00;67994.34;10059599;28;20039;-73
2023/05/08 19:19:41;;;;;;;5.97;5.38;;;;;;;-146.18;100.00;67994.34;10056285;28;20372;-74
2023/05/08 19:24:41;;;;;;;8.15;6.20;;;;;;;-146.18;100.00;67994.34;10070355;28;20074;-74
2023/05/08 19:29:42;;;;;;;9.63;5.85;;;;;;;-146.18;100.00;67994.34;10056251;28;20073;-74
2023/05/08 19:34:46;;;;;;;7.75;5.60;;;;;;;-146.18;100.00;67994.34;10051687;28;20039;-73
2023/05/08 19:39:44;;;;;;;6.30;5.70;;;;;;;-146.18;100.00;67994.34;10049848;28;20073;-73
2023/05/08 19:44:41;;;;;;;5.80;5.20;;;;;;;-146.18;100.00;67994.34;10062785;28;20050;-73
2023/05/08 19:49:43;;;;;;;8.02;6.03;;;;;;;-146.18;100.00;67994.34;10056562;28;20048;-74
2023/05/08 19:54:39;;;;;;;6.75;6.10;;;;;;;-146.18;100.00;67994.34;10042042;28;20047;-74
2023/05/08 19:59:36;;;;;;;6.40;5.65;;;;;;;-146.18;100.00;67994.34;10052053;28;20054;-72
2023/05/08 20:04:32;;;;;;;10.02;6.00;;;;;;;-146.18;100.00;67994.34;10069433;28;20046;-70
2023/05/08 20:09:49;;;;;;;7.75;6.05;;;;;;;-146.18;100.00;67994.34;10052060;28;20054;-71
2023/05/08 20:14:46;;;;;;;6.57;5.55;;;;;;;-146.18;100.00;67994.34;10059440;28;20051;-70
2023/05/08 20:19:43;;;;;;;5.47;4.97;;;;;;;-146.18;100.00;67994.34;10049426;28;21610;-70
2023/05/08 20:24:40;;;;;;;5.65;4.90;;;;;;;-146.18;100.00;67994.34;10062134;28;20067;-69
2023/05/08 20:29:37;;;;;;;6.28;5.20;;;;;;;-146.18;100.00;67994.34;10052034;28;20521;-68
2023/05/08 20:34:36;;;;;;;5.28;4.78;;;;;;;-146.18;100.00;67994.34;10055213;28;20108;-68
2023/05/08 20:39:33;;;;;;;7.55;4.95;;;;;;;-146.18;100.00;67994.34;10060874;28;20074;-67
2023/05/08 20:44:29;;;;;;;6.68;5.10;;;;;;;-146.18;100.00;67994.34;10063449;28;20509;-67
2023/05/08 20:49:26;;;;;;;7.35;5.03;;;;;;;-146.18;100.00;67994.34;10050025;28;20654;-67
2023/05/08 20:54:22;;;;;;;8.15;5.47;;;;;;;-146.18;100.00;67994.34;10063434;28;20130;-67
2023/05/08 20:59:19;;;;;;;5.93;5.13;;;;;;;-146.18;100.00;67994.34;10053786;28;20127;-69
2023/05/08 21:04:15;;;;;;;5.43;4.93;;;;;;;-146.18;100.00;67994.34;10071139;28;20154;-68
2023/05/08 21:09:12;;;;;;;6.07;4.90;;;;;;;-146.18;100.00;67994.34;10055429;28;20047;-68
2023/05/08 21:14:08;;;;;;;9.07;5.22;;;;;;;-146.18;100.00;67994.34;10063787;28;20035;-68
2023/05/08 21:19:05;;;;;;;5.18;4.68;;;;;;;-146.18;100.00;67994.34;10060276;28;20466;-68
2023/05/08 21:24:02;;;;;;;8.55;4.80;;;;;;;-146.18;100.00;67994.34;10060402;28;20490;-67
2023/05/08 21:29:01;;;;;;;5.50;5.00;;;;;;;-146.18;100.00;67994.34;10065870;28;20119;-68
2023/05/08 21:33:57;;;;;;;6.80;4.78;;;;;;;-146.18;100.00;67994.34;10056385;28;20043;-68
2023/05/08 21:38:54;;;;;;;6.53;4.93;;;;;;;-146.18;100.00;67994.34;10054497;28;20043;-69
2023/05/08 21:43:50;;;;;;;6.60;4.60;;;;;;;-146.18;100.00;67994.34;10057926;28;20497;-69
2023/05/08 21:48:47;;;;;;;5.97;4.82;;;;;;;-146.18;100.00;67994.34;10065723;28;20200;-69
2023/05/08 21:53:43;;;;;;;4.82;4.32;;;;;;;-146.18;100.00;67994.34;10066925;28;20059;-69
2023/05/08 21:58:40;;;;;;;5.32;4.63;;;;;;;-146.18;100.00;67994.34;10064098;28;20583;-69
2023/05/08 22:03:36;;;;;;;5.25;4.60;;;;;;;-146.18;100.00;67994.34;10065703;28;20047;-69
2023/05/08 22:08:33;;;;;;;4.82;4.32;;;;;;;-146.18;100.00;67994.34;10068650;28;20061;-69
2023/05/08 22:13:29;;;;;;;4.93;4.47;;;;;;;-146.18;100.00;67994.34;10064777;28;20501;-69
2023/05/08 22:18:26;;;;;;;4.55;3.97;;;;;;;-146.18;100.00;67994.34;10062577;28;20082;-69
2023/05/08 22:23:22;;;;;;;5.18;4.68;;;;;;;-146.18;100.00;67994.34;10074690;28;20142;-69
2023/05/08 22:28:19;;;;;;;4.88;4.38;;;;;;;-146.18;100.00;67994.34;10066120;28;20062;-69
2023/05/08 22:33:15;;;;;;;5.90;4.80;;;;;;;-146.18;100.00;67994.34;10059477;28;20473;-69
2023/05/08 22:38:12;;;;;;;4.47;4.00;;;;;;;-146.18;100.00;67994.34;10073925;28;20480;-69
2023/05/08 22:43:08;;;;;;;7.25;4.15;;;;;;;-146.18;100.00;67994.34;10053363;28;20502;-69
2023/05/08 22:48:05;;;;;;;5.70;4.53;;;;;;;-146.18;100.00;67994.34;10065715;28;20143;-70